Time;durP1;ratioP1;P1;durP2;ratioP2;P2;SDS_P1;SDS_P2;PMS_P1;PMS_P2;Temp;Humidity;BMP_temperature;BMP_pressure;BME280_temperature;BME280_humidity;BME280_pressure;Samples;Min_cycle;Max_cycle;Signal;HPM_P1;HPM_P2
2021/04/14 00:00:44;;;;;;;5.00;3.00;;;3.50;99.90;;;;;;5015752;28;20163;-72
2021/04/14 00:03:20;;;;;;;5.50;3.47;;;3.60;99.90;;;;;;5015159;28;20194;-72
2021/04/14 00:05:46;;;;;;;4.07;3.10;;;3.50;99.90;;;;;;5015595;28;20746;-72
2021/04/14 00:08:12;;;;;;;3.67;3.10;;;3.50;99.90;;;;;;5015495;28;20461;-71
2021/04/14 00:10:39;;;;;;;4.50;3.50;;;3.50;99.90;;;;;;5015214;28;20442;-72
2021/04/14 00:13:08;;;;;;;3.93;3.17;;;3.60;99.90;;;;;;5014549;28;20191;-73
2021/04/14 00:15:42;;;;;;;9.30;3.83;;;3.60;99.90;;;;;;5015341;28;20463;-73
2021/04/14 00:18:09;;;;;;;6.27;4.43;;;3.70;99.90;;;;;;5014938;28;20464;-72
2021/04/14 00:20:35;;;;;;;7.67;3.50;;;3.70;99.90;;;;;;5015118;28;20414;-71
2021/04/14 00:23:01;;;;;;;4.43;4.00;;;3.70;99.90;;;;;;5013308;28;20427;-72
2021/04/14 00:25:30;;;;;;;6.07;4.20;;;3.70;99.90;;;;;;5014623;28;20540;-72
2021/04/14 00:27:56;;;;;;;4.67;3.73;;;3.70;99.90;;;;;;5014753;28;20425;-73
2021/04/14 00:30:23;;;;;;;5.00;3.40;;;3.70;99.90;;;;;;5013954;28;20476;-73
2021/04/14 00:32:49;;;;;;;6.70;3.67;;;3.70;99.90;;;;;;5014860;28;20493;-73
2021/04/14 00:35:20;;;;;;;3.67;3.37;;;3.70;99.90;;;;;;5015146;28;20422;-72
2021/04/14 00:37:46;;;;;;;5.70;3.63;;;3.70;99.90;;;;;;5016756;28;20454;-71
2021/04/14 00:40:15;;;;;;;6.37;3.80;;;3.60;99.90;;;;;;5017296;28;20433;-71
2021/04/14 00:42:41;;;;;;;7.13;3.13;;;3.40;99.90;;;;;;5017003;28;20399;-73
2021/04/14 00:45:07;;;;;;;4.07;3.13;;;3.40;99.90;;;;;;5014190;28;20793;-73
2021/04/14 00:47:33;;;;;;;4.33;3.13;;;3.40;99.90;;;;;;5013889;28;20203;-74
2021/04/14 00:49:58;;;;;;;3.80;3.50;;;3.30;99.90;;;;;;5014376;28;20890;-71
2021/04/14 00:52:24;;;;;;;5.80;3.57;;;3.20;99.90;;;;;;5012773;28;20664;-74
2021/04/14 00:54:50;;;;;;;5.20;3.50;;;3.10;99.90;;;;;;5013973;28;20168;-71
2021/04/14 00:57:15;;;;;;;4.03;3.63;;;3.10;99.90;;;;;;5014855;28;20298;-71
2021/04/14 00:59:41;;;;;;;5.97;3.40;;;3.00;99.90;;;;;;5013951;28;20179;-72
2021/04/14 01:02:07;;;;;;;3.93;3.43;;;3.00;99.90;;;;;;5012878;28;20259;-72
2021/04/14 01:04:34;;;;;;;4.70;3.63;;;2.90;99.90;;;;;;5014607;28;20533;-72
2021/04/14 01:07:00;;;;;;;5.13;3.17;;;2.90;99.90;;;;;;5014529;28;20434;-72
2021/04/14 01:09:26;;;;;;;6.43;3.83;;;2.90;99.90;;;;;;5028138;28;20472;-72
2021/04/14 01:11:52;;;;;;;4.07;3.67;;;3.00;99.90;;;;;;5032417;28;20406;-72
2021/04/14 01:14:19;;;;;;;6.63;4.13;;;3.10;99.90;;;;;;5028199;28;20752;-71
2021/04/14 01:16:44;;;;;;;9.00;4.57;;;3.20;99.90;;;;;;5014947;28;20438;-74
2021/04/14 01:19:10;;;;;;;4.03;3.63;;;3.20;99.90;;;;;;5023699;28;20410;-72
2021/04/14 01:21:41;;;;;;;6.70;3.30;;;3.10;99.90;;;;;;5023087;28;20167;-73
2021/04/14 01:24:09;;;;;;;5.50;3.30;;;3.20;99.90;;;;;;5015999;28;20575;-71
2021/04/14 01:26:35;;;;;;;4.90;3.43;;;3.20;99.90;;;;;;5013475;28;20438;-71
2021/04/14 01:29:00;;;;;;;5.73;3.97;;;3.20;99.90;;;;;;5013716;28;20545;-71
2021/04/14 01:31:33;;;;;;;4.30;3.60;;;3.10;99.90;;;;;;5014194;28;20198;-72
2021/04/14 01:34:11;;;;;;;5.03;3.80;;;3.00;99.90;;;;;;5013655;28;20170;-72
2021/04/14 01:36:37;;;;;;;6.37;4.13;;;3.00;99.90;;;;;;5014016;28;20820;-71
2021/04/14 01:39:07;;;;;;;6.23;3.60;;;3.10;99.90;;;;;;5014277;28;20437;-72
2021/04/14 01:41:34;;;;;;;4.03;3.43;;;3.00;99.90;;;;;;5014008;28;20168;-72
2021/04/14 01:44:00;;;;;;;4.40;3.77;;;2.90;99.90;;;;;;5013041;28;20437;-72
2021/04/14 01:46:25;;;;;;;7.80;4.13;;;2.80;99.90;;;;;;5013361;28;20931;-72
2021/04/14 01:48:51;;;;;;;6.23;4.03;;;2.80;99.90;;;;;;5012482;28;20198;-72
2021/04/14 01:51:17;;;;;;;9.90;3.60;;;2.80;99.90;;;;;;5014135;28;20171;-72
2021/04/14 01:53:43;;;;;;;4.40;3.33;;;2.70;99.90;;;;;;5013527;28;20183;-72
2021/04/14 01:56:09;;;;;;;3.23;2.93;;;2.80;99.90;;;;;;5013363;28;20414;-72
2021/04/14 01:58:34;;;;;;;5.47;3.80;;;2.70;99.90;;;;;;5015266;28;20577;-72
2021/04/14 02:01:05;;;;;;;5.00;3.83;;;2.80;99.90;;;;;;5017150;28;20175;-73
2021/04/14 02:03:35;;;;;;;5.20;3.60;;;2.80;99.90;;;;;;5017219;28;20195;-73
2021/04/14 02:06:01;;;;;;;4.07;3.07;;;2.90;99.90;;;;;;5017408;28;20425;-72
2021/04/14 02:08:26;;;;;;;3.63;3.27;;;2.90;99.90;;;;;;5017183;28;20950;-73
2021/04/14 02:10:52;;;;;;;5.50;3.70;;;2.90;99.90;;;;;;5016647;28;20241;-72
2021/04/14 02:13:21;;;;;;;4.93;3.27;;;3.00;99.90;;;;;;5017109;28;20528;-72
2021/04/14 02:15:48;;;;;;;4.90;3.50;;;3.00;99.90;;;;;;5017040;28;20422;-72
2021/04/14 02:18:14;;;;;;;4.57;3.50;;;3.00;99.90;;;;;;5016159;28;20517;-72
2021/04/14 02:20:40;;;;;;;4.50;4.10;;;3.10;99.90;;;;;;5017620;28;20914;-72
2021/04/14 02:23:34;;;;;;;4.03;3.63;;;3.10;99.90;;;;;;5016868;28;20414;-72
2021/04/14 02:26:02;;;;;;;6.20;3.90;;;3.20;99.90;;;;;;5017669;28;20649;-72
2021/04/14 02:28:28;;;;;;;4.57;3.90;;;3.20;99.90;;;;;;5016712;28;20446;-72
2021/04/14 02:30:54;;;;;;;7.10;4.60;;;3.20;99.90;;;;;;5016640;28;20496;-72
2021/04/14 02:33:20;;;;;;;6.10;4.07;;;3.10;99.90;;;;;;5016693;28;20410;-72
2021/04/14 02:35:46;;;;;;;4.90;3.67;;;3.00;99.90;;;;;;5016781;28;20418;-73
2021/04/14 02:38:13;;;;;;;5.80;4.33;;;2.70;99.90;;;;;;5016526;28;20449;-73
2021/04/14 02:40:39;;;;;;;5.07;3.93;;;2.60;99.90;;;;;;5015880;28;20498;-73
2021/04/14 02:43:06;;;;;;;5.87;4.83;;;2.50;99.90;;;;;;5015542;28;20794;-73
2021/04/14 02:45:34;;;;;;;4.40;4.00;;;2.60;99.90;;;;;;5016498;28;20407;-73
2021/04/14 02:48:00;;;;;;;5.30;4.38;;;2.50;99.90;;;;;;5016398;28;20454;-72
2021/04/14 02:50:26;;;;;;;9.73;4.23;;;2.60;99.90;;;;;;5015259;28;20601;-72
2021/04/14 02:52:53;;;;;;;5.63;4.27;;;2.60;99.90;;;;;;5016617;28;20218;-72
2021/04/14 02:55:20;;;;;;;5.90;3.63;;;2.60;99.90;;;;;;5016529;28;20172;-72
2021/04/14 02:57:46;;;;;;;6.13;4.17;;;2.50;99.90;;;;;;5016911;28;20442;-72
2021/04/14 03:00:13;;;;;;;4.50;3.93;;;2.50;99.90;;;;;;5015863;28;20441;-72
2021/04/14 03:02:39;;;;;;;6.73;4.00;;;2.60;99.90;;;;;;5015953;28;20492;-72
2021/04/14 03:05:07;;;;;;;5.60;4.60;;;2.70;99.90;;;;;;5016562;28;20431;-72
2021/04/14 03:07:32;;;;;;;4.90;3.53;;;2.70;99.90;;;;;;5016617;28;20430;-72
2021/04/14 03:09:58;;;;;;;5.03;4.60;;;2.80;99.90;;;;;;5015561;28;20859;-72
2021/04/14 03:12:23;;;;;;;6.70;4.40;;;2.80;99.90;;;;;;5016045;28;20237;-72
2021/04/14 03:14:49;;;;;;;4.80;4.30;;;2.80;99.90;;;;;;5016072;28;20168;-73
2021/04/14 03:17:15;;;;;;;6.50;4.50;;;2.70;99.90;;;;;;5014766;28;20645;-72
2021/04/14 03:19:40;;;;;;;5.60;5.10;;;2.70;99.90;;;;;;5016110;28;20167;-72
2021/04/14 03:22:06;;;;;;;6.03;4.70;;;2.70;99.90;;;;;;5015669;28;20433;-72
2021/04/14 03:24:32;;;;;;;4.17;3.77;;;2.70;99.90;;;;;;5016541;28;20202;-73
2021/04/14 03:26:58;;;;;;;6.40;4.10;;;2.70;99.90;;;;;;5016212;28;20279;-72
2021/04/14 03:29:23;;;;;;;4.57;4.17;;;2.80;99.90;;;;;;5016328;28;20450;-72
2021/04/14 03:31:49;;;;;;;7.33;4.07;;;2.80;99.90;;;;;;5015670;28;20238;-72
2021/04/14 03:34:15;;;;;;;4.60;4.20;;;2.80;99.90;;;;;;5015677;28;20206;-72
2021/04/14 03:36:40;;;;;;;8.07;5.03;;;2.90;99.90;;;;;;5015270;28;20250;-72
2021/04/14 03:39:07;;;;;;;7.37;4.23;;;2.90;99.90;;;;;;5015464;28;20187;-72
2021/04/14 03:41:33;;;;;;;6.23;4.13;;;2.70;99.90;;;;;;5015470;28;20266;-72
2021/04/14 03:43:59;;;;;;;5.20;4.70;;;2.60;99.90;;;;;;5015388;28;20414;-72
2021/04/14 03:46:25;;;;;;;4.43;3.93;;;2.50;99.90;;;;;;5015708;28;20402;-72
2021/04/14 03:48:52;;;;;;;8.77;3.93;;;2.50;99.90;;;;;;5014053;28;20211;-72
2021/04/14 03:51:18;;;;;;;7.00;4.87;;;2.60;99.90;;;;;;5014328;28;20399;-72
2021/04/14 03:53:44;;;;;;;6.22;4.50;;;2.70;99.90;;;;;;5014917;28;20421;-72
2021/04/14 03:56:13;;;;;;;5.60;4.87;;;2.70;99.90;;;;;;5014461;28;20525;-73
2021/04/14 03:58:40;;;;;;;5.87;4.33;;;2.70;99.90;;;;;;5015481;28;20502;-72
2021/04/14 04:01:09;;;;;;;5.80;4.93;;;2.70;99.90;;;;;;5014043;28;20411;-72
2021/04/14 04:03:35;;;;;;;8.60;5.37;;;2.60;99.90;;;;;;5015319;28;20753;-73
2021/04/14 04:06:01;;;;;;;5.50;4.23;;;2.50;99.90;;;;;;5015361;28;20418;-72
2021/04/14 04:08:27;;;;;;;8.30;4.97;;;2.30;99.90;;;;;;5015431;28;20199;-72
2021/04/14 04:10:52;;;;;;;6.80;4.73;;;2.20;99.90;;;;;;5015484;28;20445;-72
2021/04/14 04:13:18;;;;;;;4.90;4.50;;;2.10;99.90;;;;;;5014833;28;20176;-72
2021/04/14 04:15:45;;;;;;;4.50;4.10;;;2.00;99.90;;;;;;5015253;28;20168;-72
2021/04/14 04:18:10;;;;;;;6.37;4.10;;;2.00;99.90;;;;;;5015170;28;20473;-73
2021/04/14 04:20:38;;;;;;;11.10;4.67;;;2.10;99.90;;;;;;5014786;28;20779;-72
2021/04/14 04:23:06;;;;;;;6.23;5.30;;;2.20;99.90;;;;;;5013385;28;20175;-72
2021/04/14 04:25:32;;;;;;;13.40;4.87;;;2.20;99.90;;;;;;5014632;28;20862;-72
2021/04/14 04:27:59;;;;;;;5.67;5.00;;;2.30;99.90;;;;;;5015033;28;20764;-72
2021/04/14 04:30:25;;;;;;;6.17;5.20;;;2.40;99.90;;;;;;5015024;28;20449;-71
2021/04/14 04:32:51;;;;;;;7.85;4.53;;;2.50;99.90;;;;;;5013800;28;20916;-71
2021/04/14 04:35:17;;;;;;;6.03;4.40;;;2.50;99.90;;;;;;5014953;28;20206;-71
2021/04/14 04:37:43;;;;;;;5.60;4.33;;;2.40;99.90;;;;;;5017870;28;20227;-71
2021/04/14 04:40:09;;;;;;;10.13;6.80;;;2.50;99.90;;;;;;5036176;28;20414;-72
2021/04/14 04:42:35;;;;;;;7.07;5.10;;;2.50;99.90;;;;;;5035307;28;20185;-72
2021/04/14 04:45:03;;;;;;;8.77;5.10;;;2.50;99.90;;;;;;5018828;28;20501;-72
2021/04/14 04:47:29;;;;;;;5.50;4.40;;;2.50;99.90;;;;;;5015147;28;20454;-72
2021/04/14 04:49:55;;;;;;;4.60;4.13;;;2.50;99.90;;;;;;5014569;28;20461;-72
2021/04/14 04:52:20;;;;;;;5.30;4.60;;;2.60;99.90;;;;;;5014022;28;20175;-72
2021/04/14 04:54:46;;;;;;;10.67;5.10;;;2.60;99.90;;;;;;5013245;28;20266;-72
2021/04/14 04:57:11;;;;;;;9.50;5.87;;;2.50;99.90;;;;;;5012980;28;20279;-72
2021/04/14 04:59:37;;;;;;;5.40;4.73;;;2.40;99.90;;;;;;5014363;28;20191;-72
2021/04/14 05:02:02;;;;;;;7.37;4.60;;;2.40;99.90;;;;;;5013883;28;20183;-72
2021/04/14 05:04:28;;;;;;;8.07;5.03;;;2.40;99.90;;;;;;5014275;28;20234;-73
2021/04/14 05:06:54;;;;;;;5.20;4.67;;;2.40;99.90;;;;;;5011702;28;20669;-72
2021/04/14 05:09:20;;;;;;;6.57;5.87;;;2.40;99.90;;;;;;5012600;28;20549;-72
2021/04/14 05:11:49;;;;;;;8.20;5.50;;;2.40;99.90;;;;;;5016106;28;20168;-72
2021/04/14 05:14:15;;;;;;;6.70;4.60;;;2.50;99.90;;;;;;5017345;28;20398;-72
2021/04/14 05:16:41;;;;;;;9.93;5.00;;;2.60;99.90;;;;;;5014084;28;20438;-72
2021/04/14 05:19:06;;;;;;;7.20;5.17;;;2.60;99.90;;;;;;5014129;28;20503;-72
2021/04/14 05:21:34;;;;;;;5.40;4.40;;;2.70;99.90;;;;;;5014618;28;20411;-72
2021/04/14 05:24:00;;;;;;;7.07;5.00;;;2.70;99.90;;;;;;5013892;28;20258;-72
2021/04/14 05:26:26;;;;;;;6.23;5.27;;;2.90;99.90;;;;;;5011601;28;20974;-72
2021/04/14 05:28:52;;;;;;;7.63;5.93;;;3.00;99.90;;;;;;5013463;28;20237;-72
2021/04/14 05:31:18;;;;;;;10.03;8.97;;;3.00;99.90;;;;;;5013932;28;20414;-72
2021/04/14 05:33:43;;;;;;;7.70;5.90;;;3.00;99.90;;;;;;5017107;28;20167;-72
2021/04/14 05:36:09;;;;;;;6.13;5.53;;;2.90;99.90;;;;;;5021189;28;20617;-72
2021/04/14 05:38:35;;;;;;;10.03;5.90;;;2.90;99.90;;;;;;5020344;28;20186;-72
2021/04/14 05:41:01;;;;;;;6.30;5.70;;;2.90;99.90;;;;;;5020756;28;20175;-75
2021/04/14 05:43:28;;;;;;;8.50;5.53;;;2.80;99.90;;;;;;5018968;28;20171;-72
2021/04/14 05:45:59;;;;;;;7.37;5.53;;;2.80;99.90;;;;;;5020656;28;20505;-72
2021/04/14 05:48:26;;;;;;;11.83;5.70;;;2.90;99.90;;;;;;5020263;28;20430;-72
2021/04/14 05:50:56;;;;;;;7.83;5.70;;;3.00;99.90;;;;;;5020932;28;20410;-73
2021/04/14 05:53:22;;;;;;;7.40;5.77;;;3.10;99.90;;;;;;5018751;28;20411;-73
2021/04/14 05:55:48;;;;;;;9.43;6.57;;;3.10;99.90;;;;;;5020261;28;20830;-73
2021/04/14 05:58:14;;;;;;;9.20;5.40;;;3.20;99.90;;;;;;5020742;28;20222;-73
2021/04/14 06:00:39;;;;;;;7.63;5.93;;;3.20;99.90;;;;;;5016120;28;20525;-73
2021/04/14 06:03:05;;;;;;;7.73;6.23;;;3.20;99.90;;;;;;5013863;28;21016;-73
2021/04/14 06:05:31;;;;;;;9.63;6.30;;;3.30;99.90;;;;;;5007947;28;20179;-73
2021/04/14 06:07:57;;;;;;;11.07;6.27;;;3.30;99.90;;;;;;5020173;28;20430;-73
2021/04/14 06:10:24;;;;;;;7.77;6.70;;;3.40;99.90;;;;;;5019927;28;20453;-73
2021/04/14 06:12:52;;;;;;;8.47;7.27;;;3.40;99.90;;;;;;5017654;28;20492;-73
2021/04/14 06:15:30;;;;;;;9.60;6.67;;;3.50;99.90;;;;;;5006027;28;20453;-73
2021/04/14 06:17:56;;;;;;;7.77;6.37;;;3.50;99.90;;;;;;5014437;28;20553;-73
2021/04/14 06:20:24;;;;;;;11.93;6.73;;;3.60;99.90;;;;;;5003106;28;22733;-73
2021/04/14 06:22:51;;;;;;;8.90;6.20;;;3.60;99.90;;;;;;5013320;28;20549;-73
2021/04/14 06:25:23;;;;;;;7.63;6.60;;;3.60;99.90;;;;;;5018175;28;20430;-74
2021/04/14 06:28:03;;;;;;;6.90;6.20;;;3.60;99.90;;;;;;5021348;28;20721;-72
2021/04/14 06:30:30;;;;;;;11.73;6.50;;;3.70;99.90;;;;;;5018566;28;20461;-72
2021/04/14 06:32:56;;;;;;;8.63;6.90;;;3.70;99.90;;;;;;5013029;28;20430;-73
2021/04/14 06:35:23;;;;;;;7.87;6.50;;;3.70;99.90;;;;;;5000620;28;20172;-72
2021/04/14 06:37:49;;;;;;;7.50;5.57;;;3.80;99.90;;;;;;5008495;28;20211;-72
2021/04/14 06:40:48;;;;;;;8.40;6.87;;;3.80;99.90;;;;;;5019061;28;20406;-72
2021/04/14 06:43:44;;;;;;;8.93;6.80;;;3.90;99.90;;;;;;5006595;28;21010;-72
2021/04/14 06:46:25;;;;;;;8.20;6.97;;;4.00;99.90;;;;;;5011919;28;20427;-72
2021/04/14 06:49:18;;;;;;;9.43;6.97;;;4.10;99.90;;;;;;5004448;28;20812;-74
2021/04/14 06:52:21;;;;;;;8.33;7.13;;;4.20;99.90;;;;;;5012861;28;20829;-72
2021/04/14 06:55:00;;;;;;;8.03;7.23;;;4.30;99.90;;;;;;5011154;28;20408;-74
2021/04/14 06:57:37;;;;;;;9.63;6.43;;;4.40;99.90;;;;;;5014044;28;20458;-72
2021/04/14 07:00:18;;;;;;;8.27;7.47;;;4.50;99.90;;;;;;5011395;28;20430;-72
2021/04/14 07:02:49;;;;;;;8.93;8.03;;;4.70;99.90;;;;;;5005506;28;20804;-73
2021/04/14 07:05:23;;;;;;;9.73;7.10;;;4.90;99.90;;;;;;5002528;28;20427;-73
2021/04/14 07:07:51;;;;;;;9.27;7.33;;;5.00;99.90;;;;;;5009775;28;20444;-73
2021/04/14 07:10:30;;;;;;;8.47;7.40;;;5.10;99.90;;;;;;5015015;28;20482;-73
2021/04/14 07:13:03;;;;;;;9.77;7.00;;;5.30;99.90;;;;;;5002187;28;20423;-72
2021/04/14 07:15:29;;;;;;;12.97;7.90;;;5.40;99.90;;;;;;5010574;28;20782;-73
2021/04/14 07:18:09;;;;;;;9.80;7.90;;;5.40;99.90;;;;;;4997546;28;20827;-73
2021/04/14 07:20:42;;;;;;;9.30;7.60;;;5.50;99.90;;;;;;5001155;28;20423;-72
2021/04/14 07:23:25;;;;;;;9.37;7.40;;;5.60;99.90;;;;;;5014577;28;20426;-73
2021/04/14 07:26:22;;;;;;;8.90;7.87;;;5.70;99.90;;;;;;5016388;28;20430;-73
2021/04/14 07:29:13;;;;;;;9.07;7.70;;;5.80;99.90;;;;;;5004570;28;20553;-73
2021/04/14 07:32:00;;;;;;;12.37;7.20;;;5.90;99.80;;;;;;5015694;28;20422;-73
2021/04/14 07:34:31;;;;;;;9.90;7.70;;;6.00;99.60;;;;;;5017083;28;20483;-73
2021/04/14 07:37:03;;;;;;;11.43;7.43;;;6.10;99.40;;;;;;5024365;28;20463;-73
2021/04/14 07:39:38;;;;;;;8.80;7.73;;;6.20;99.10;;;;;;5011173;28;20480;-74
2021/04/14 07:42:34;;;;;;;7.23;6.30;;;6.40;98.80;;;;;;5023660;28;20476;-74
2021/04/14 07:45:29;;;;;;;9.87;8.00;;;6.50;98.50;;;;;;5018644;28;21032;-73
2021/04/14 07:47:59;;;;;;;9.97;7.63;;;6.60;97.90;;;;;;4992503;28;20829;-72
2021/04/14 07:50:32;;;;;;;13.67;8.30;;;6.80;97.40;;;;;;5019467;28;20453;-73
2021/04/14 07:52:57;;;;;;;10.97;8.70;;;6.90;96.50;;;;;;5012491;28;20919;-73
2021/04/14 07:55:33;;;;;;;11.10;8.97;;;7.10;95.40;;;;;;5007533;28;20423;-73
2021/04/14 07:58:07;;;;;;;11.37;8.77;;;7.10;94.90;;;;;;4992373;28;20283;-73
2021/04/14 08:00:40;;;;;;;12.60;9.57;;;7.10;95.00;;;;;;5009041;28;21212;-73
2021/04/14 08:03:30;;;;;;;10.93;8.80;;;7.00;95.10;;;;;;5011085;28;21004;-74
2021/04/14 08:06:19;;;;;;;12.73;9.20;;;7.10;95.20;;;;;;5011529;28;20549;-73
2021/04/14 08:08:47;;;;;;;11.50;8.90;;;6.90;94.50;;;;;;5028146;28;20783;-73
2021/04/14 08:11:29;;;;;;;12.53;9.20;;;6.60;96.50;;;;;;5039487;28;20425;-74
2021/04/14 08:14:11;;;;;;;11.10;8.67;;;6.20;97.90;;;;;;5003003;28;20424;-73
2021/04/14 08:16:46;;;;;;;11.07;9.33;;;6.00;99.10;;;;;;5012531;28;20562;-74
2021/04/14 08:19:33;;;;;;;12.40;10.27;;;5.90;99.90;;;;;;5019495;28;20513;-73
2021/04/14 08:22:06;;;;;;;13.80;10.13;;;5.80;99.90;;;;;;4999848;28;20428;-73
2021/04/14 08:24:33;;;;;;;11.80;9.30;;;5.80;99.90;;;;;;5025084;28;20419;-74
2021/04/14 08:27:02;;;;;;;12.83;10.80;;;5.50;99.90;;;;;;5022810;28;20984;-74
2021/04/14 08:29:28;;;;;;;11.07;9.93;;;5.30;99.90;;;;;;5007690;28;20471;-74
2021/04/14 08:31:56;;;;;;;15.50;10.13;;;5.30;99.90;;;;;;5013942;28;20443;-74
2021/04/14 08:34:27;;;;;;;15.70;12.53;;;5.20;99.90;;;;;;5018676;28;20506;-73
2021/04/14 08:37:16;;;;;;;15.10;10.73;;;5.20;99.90;;;;;;5009817;28;20801;-74
2021/04/14 08:39:51;;;;;;;16.40;11.30;;;5.20;99.90;;;;;;5020610;28;20877;-74
2021/04/14 08:42:19;;;;;;;13.00;10.70;;;5.10;99.90;;;;;;5030933;28;20420;-74
2021/04/14 08:44:49;;;;;;;13.80;10.80;;;5.10;99.90;;;;;;5019906;28;20415;-73
2021/04/14 08:47:27;;;;;;;12.70;10.90;;;5.00;99.90;;;;;;5026303;28;20470;-72
2021/04/14 08:50:06;;;;;;;14.10;11.17;;;4.90;99.90;;;;;;5025489;28;21062;-73
2021/04/14 08:52:39;;;;;;;14.63;10.87;;;5.20;99.90;;;;;;5009762;28;20434;-73
2021/04/14 08:55:05;;;;;;;15.40;11.47;;;5.20;99.90;;;;;;5009667;28;20527;-73
2021/04/14 08:57:32;;;;;;;17.23;11.53;;;5.40;99.90;;;;;;5010917;28;20895;-73
2021/04/14 08:59:57;;;;;;;15.77;10.73;;;5.30;99.90;;;;;;5008576;28;20454;-71
2021/04/14 09:02:25;;;;;;;14.10;10.73;;;5.20;99.90;;;;;;5022541;28;20439;-73
2021/04/14 09:04:53;;;;;;;15.63;10.77;;;5.20;99.90;;;;;;5009163;28;20187;-73
2021/04/14 09:07:33;;;;;;;14.20;10.20;;;5.30;99.90;;;;;;5014521;28;20465;-73
2021/04/14 09:10:04;;;;;;;14.70;10.20;;;5.40;99.90;;;;;;5026717;28;20519;-73
2021/04/14 09:12:50;;;;;;;15.20;10.07;;;5.50;99.90;;;;;;5030521;28;20751;-73
2021/04/14 09:15:17;;;;;;;15.07;10.27;;;5.60;99.90;;;;;;5014749;28;20498;-72
2021/04/14 09:17:45;;;;;;;15.03;9.90;;;5.70;99.90;;;;;;5012860;28;20977;-73
2021/04/14 09:20:21;;;;;;;10.63;9.10;;;6.10;99.90;;;;;;5020425;28;20852;-72
2021/04/14 09:23:00;;;;;;;12.30;10.17;;;6.50;99.90;;;;;;5010423;28;20496;-73
2021/04/14 09:25:40;;;;;;;12.10;10.00;;;6.80;99.20;;;;;;5024612;28;20514;-72
2021/04/14 09:28:06;;;;;;;11.20;8.80;;;7.10;97.80;;;;;;5013904;28;20207;-72
2021/04/14 09:30:40;;;;;;;11.27;8.93;;;7.40;97.30;;;;;;5006199;28;20501;-72
2021/04/14 09:33:05;;;;;;;12.20;9.90;;;7.70;96.20;;;;;;5016720;28;20435;-73
2021/04/14 09:35:31;;;;;;;12.70;10.43;;;7.80;95.40;;;;;;5012367;28;20883;-72
2021/04/14 09:38:21;;;;;;;12.17;10.10;;;8.00;94.90;;;;;;5010732;28;20210;-72
2021/04/14 09:40:47;;;;;;;11.87;9.60;;;8.30;94.50;;;;;;5014701;28;20640;-72
2021/04/14 09:43:28;;;;;;;11.40;9.20;;;8.50;94.10;;;;;;5003010;28;20434;-72
2021/04/14 09:46:09;;;;;;;12.30;9.43;;;8.40;93.30;;;;;;5005288;28;20454;-72
2021/04/14 09:48:50;;;;;;;12.03;9.60;;;8.20;92.90;;;;;;5015701;28;20430;-73
2021/04/14 09:51:27;;;;;;;15.70;9.63;;;8.30;93.30;;;;;;5008041;28;20436;-73
2021/04/14 09:53:58;;;;;;;13.67;9.73;;;8.40;93.30;;;;;;5002024;28;20902;-72
2021/04/14 09:56:27;;;;;;;11.63;9.80;;;8.40;93.00;;;;;;5006946;28;20451;-72
2021/04/14 09:59:04;;;;;;;10.83;8.93;;;8.10;92.70;;;;;;5015044;28;20471;-73
2021/04/14 10:01:34;;;;;;;14.70;10.30;;;8.10;93.00;;;;;;5009562;28;21113;-73
2021/04/14 10:04:03;;;;;;;13.83;10.50;;;8.10;92.90;;;;;;5009750;28;20911;-73
2021/04/14 10:06:30;;;;;;;12.73;10.17;;;8.00;92.20;;;;;;5010847;28;20434;-73
2021/04/14 10:09:00;;;;;;;12.20;8.97;;;7.90;92.30;;;;;;5014192;28;20473;-74
2021/04/14 10:11:39;;;;;;;12.23;10.27;;;7.80;91.30;;;;;;5010914;28;20417;-74
2021/04/14 10:14:14;;;;;;;9.80;8.80;;;7.80;91.80;;;;;;5027790;28;20414;-74
2021/04/14 10:16:39;;;;;;;11.00;8.47;;;7.90;91.00;;;;;;5022436;28;20444;-73
2021/04/14 10:19:09;;;;;;;10.40;7.43;;;8.30;90.50;;;;;;5031223;28;20413;-73
2021/04/14 10:21:36;;;;;;;11.07;7.70;;;8.30;88.00;;;;;;5014506;28;20203;-73
2021/04/14 10:24:06;;;;;;;8.70;7.70;;;8.30;87.50;;;;;;5016279;28;20429;-73
2021/04/14 10:26:35;;;;;;;12.17;7.80;;;8.60;88.40;;;;;;5018593;28;20886;-72
2021/04/14 10:29:05;;;;;;;10.90;8.53;;;8.90;89.80;;;;;;5016999;28;20470;-73
2021/04/14 10:31:34;;;;;;;10.67;8.70;;;9.10;89.50;;;;;;5013805;28;20477;-74
2021/04/14 10:34:12;;;;;;;9.97;7.90;;;8.80;88.70;;;;;;5018887;28;20783;-73
2021/04/14 10:36:43;;;;;;;9.17;7.13;;;8.80;89.60;;;;;;5016271;28;20521;-73
2021/04/14 10:39:15;;;;;;;7.40;6.50;;;8.80;83.60;;;;;;5029725;28;20840;-73
2021/04/14 10:41:43;;;;;;;7.93;6.53;;;8.50;82.60;;;;;;5033783;28;20465;-73
2021/04/14 10:44:20;;;;;;;8.43;7.53;;;8.40;84.90;;;;;;5016074;28;20442;-74
2021/04/14 10:46:47;;;;;;;10.93;8.50;;;8.50;85.40;;;;;;5029170;28;20949;-74
2021/04/14 10:49:25;;;;;;;9.07;7.80;;;8.40;85.90;;;;;;5036622;28;20511;-73
2021/04/14 10:51:54;;;;;;;9.17;7.53;;;8.60;86.70;;;;;;5036949;28;20409;-73
2021/04/14 10:54:24;;;;;;;10.30;8.40;;;8.50;86.90;;;;;;5027149;28;20800;-73
2021/04/14 10:57:07;;;;;;;9.83;8.83;;;8.40;87.00;;;;;;5016902;28;20450;-74
2021/04/14 10:59:35;;;;;;;8.70;7.80;;;8.30;86.00;;;;;;5022112;28;20429;-72
2021/04/14 11:02:17;;;;;;;9.87;7.47;;;8.40;86.10;;;;;;5033601;28;21028;-73
2021/04/14 11:04:44;;;;;;;7.63;6.93;;;8.60;85.20;;;;;;5032363;28;20418;-73
2021/04/14 11:07:18;;;;;;;7.07;6.47;;;8.60;81.50;;;;;;5013267;28;20450;-73
2021/04/14 11:09:45;;;;;;;8.30;7.50;;;8.80;81.20;;;;;;5013657;28;20502;-72
2021/04/14 11:12:23;;;;;;;8.80;6.70;;;9.10;81.20;;;;;;5017904;28;20426;-73
2021/04/14 11:14:55;;;;;;;7.70;6.90;;;9.30;79.10;;;;;;5030715;28;20435;-73
2021/04/14 11:17:23;;;;;;;7.93;7.23;;;9.50;77.50;;;;;;5013454;28;20458;-73
2021/04/14 11:20:13;;;;;;;10.00;8.43;;;9.60;76.90;;;;;;5031633;28;20427;-72
2021/04/14 11:22:45;;;;;;;11.10;9.90;;;8.90;82.40;;;;;;5023078;28;20439;-73
2021/04/14 11:25:26;;;;;;;9.50;8.33;;;8.70;85.10;;;;;;5013475;28;20474;-73
2021/04/14 11:28:03;;;;;;;11.43;8.80;;;8.70;87.00;;;;;;5017693;28;20812;-73
2021/04/14 11:30:31;;;;;;;13.17;10.60;;;8.70;88.10;;;;;;5035719;28;20460;-72
2021/04/14 11:33:00;;;;;;;11.80;9.50;;;8.80;88.50;;;;;;5026993;28;20423;-73
2021/04/14 11:35:33;;;;;;;9.47;8.20;;;9.00;88.30;;;;;;5032101;28;20419;-73
2021/04/14 11:37:59;;;;;;;10.67;8.93;;;9.10;88.70;;;;;;5019589;28;20479;-73
2021/04/14 11:40:38;;;;;;;10.40;9.20;;;9.20;88.00;;;;;;5046651;28;20417;-74
2021/04/14 11:43:26;;;;;;;10.80;8.20;;;9.40;86.80;;;;;;5050028;28;20205;-74
2021/04/14 11:46:08;;;;;;;14.17;10.00;;;9.50;86.00;;;;;;5004449;28;20403;-73
2021/04/14 11:48:38;;;;;;;13.97;11.20;;;9.00;91.10;;;;;;5013241;28;20421;-73
2021/04/14 11:51:20;;;;;;;12.00;10.80;;;8.60;92.30;;;;;;5026474;28;20414;-74
2021/04/14 11:53:50;;;;;;;11.20;10.03;;;8.30;93.00;;;;;;5022145;28;20516;-74
2021/04/14 11:56:54;;;;;;;11.70;10.50;;;8.30;93.00;;;;;;5013135;28;20527;-73
2021/04/14 11:59:43;;;;;;;11.17;10.03;;;8.00;93.40;;;;;;5023443;28;20451;-73
2021/04/14 12:02:11;;;;;;;13.23;10.40;;;8.10;93.20;;;;;;5024250;28;20426;-73
2021/04/14 12:04:38;;;;;;;11.80;10.23;;;8.30;93.40;;;;;;5020690;28;20521;-73
2021/04/14 12:07:06;;;;;;;10.50;9.40;;;8.20;96.40;;;;;;5010503;28;20481;-73
2021/04/14 12:09:32;;;;;;;12.27;9.77;;;8.10;98.60;;;;;;5013163;28;21053;-74
2021/04/14 12:12:09;;;;;;;10.87;9.67;;;8.00;99.90;;;;;;5026902;28;20411;-73
2021/04/14 12:14:35;;;;;;;9.87;8.93;;;8.10;99.90;;;;;;5019880;28;20205;-73
2021/04/14 12:17:00;;;;;;;9.67;8.60;;;8.10;99.90;;;;;;5011885;28;20451;-74
2021/04/14 12:19:26;;;;;;;9.63;8.73;;;8.10;99.90;;;;;;5011827;28;20451;-73
2021/04/14 12:21:52;;;;;;;8.90;8.17;;;8.10;99.90;;;;;;5015480;28;20171;-73
2021/04/14 12:24:18;;;;;;;8.23;7.53;;;8.10;99.90;;;;;;5028842;28;20185;-72
2021/04/14 12:26:44;;;;;;;8.97;8.07;;;8.10;99.90;;;;;;5020216;28;20561;-73
2021/04/14 12:29:10;;;;;;;8.77;7.97;;;8.20;99.90;;;;;;5009610;28;20541;-72
2021/04/14 12:31:36;;;;;;;9.73;8.37;;;8.20;99.90;;;;;;5012488;28;20422;-73
2021/04/14 12:34:04;;;;;;;7.50;6.90;;;8.20;98.20;;;;;;5026382;28;20191;-72
2021/04/14 12:36:30;;;;;;;6.80;6.10;;;8.30;97.10;;;;;;5019249;28;20472;-72
2021/04/14 12:38:56;;;;;;;6.50;5.90;;;8.40;95.70;;;;;;5030444;28;20413;-71
2021/04/14 12:41:22;;;;;;;6.77;6.17;;;8.50;93.90;;;;;;5028431;28;20190;-71
2021/04/14 12:43:47;;;;;;;8.20;6.73;;;8.60;92.70;;;;;;5010444;28;20259;-73
2021/04/14 12:46:13;;;;;;;8.23;6.67;;;8.80;91.80;;;;;;5011772;28;20523;-72
2021/04/14 12:48:45;;;;;;;8.07;7.00;;;8.90;92.20;;;;;;5011369;28;20708;-72
2021/04/14 12:51:27;;;;;;;7.20;6.40;;;9.00;91.80;;;;;;5013382;28;20189;-73
2021/04/14 12:54:10;;;;;;;9.10;6.90;;;9.10;91.40;;;;;;5014387;28;20425;-73
2021/04/14 12:56:40;;;;;;;7.67;6.57;;;9.20;90.30;;;;;;5028474;28;20440;-74
2021/04/14 12:59:27;;;;;;;7.37;6.57;;;9.20;89.70;;;;;;5030478;28;20493;-74
2021/04/14 13:02:00;;;;;;;7.83;7.13;;;9.30;88.70;;;;;;5022078;28;20422;-73
2021/04/14 13:04:36;;;;;;;9.17;8.27;;;9.30;89.50;;;;;;5029959;28;20762;-74
2021/04/14 13:07:12;;;;;;;9.30;8.37;;;9.10;89.30;;;;;;5017019;28;20780;-72
2021/04/14 13:09:38;;;;;;;9.17;8.30;;;8.90;90.50;;;;;;5011553;28;20462;-74